createdAt,value
2023-04-16T00:01:15.620Z,37.50
2023-04-16T00:03:42.179Z,35.83
2023-04-16T00:06:10.713Z,34.70
2023-04-16T00:08:37.363Z,34.65
2023-04-16T00:11:03.870Z,34.13
2023-04-16T00:13:30.421Z,37.55
2023-04-16T00:15:57.083Z,36.20
2023-04-16T00:18:23.608Z,36.55
2023-04-16T00:20:50.670Z,35.53
2023-04-16T00:23:17.363Z,39.55
2023-04-16T00:25:43.795Z,38.08
2023-04-16T00:28:11.193Z,37.20
2023-04-16T00:30:37.886Z,38.15
2023-04-16T00:33:04.816Z,39.20
2023-04-16T00:35:31.315Z,38.53
2023-04-16T00:37:57.722Z,37.75
2023-04-16T00:40:27.027Z,38.20
2023-04-16T00:42:53.428Z,35.95
2023-04-16T00:45:20.040Z,37.08
2023-04-16T00:47:46.923Z,35.33
2023-04-16T00:50:14.083Z,36.45
2023-04-16T00:52:40.757Z,38.67
2023-04-16T00:55:07.458Z,38.67
2023-04-16T00:57:33.929Z,38.67
2023-04-16T01:00:00.367Z,37.83
2023-04-16T01:02:27.008Z,36.40
2023-04-16T01:04:53.614Z,33.20
2023-04-16T01:07:20.100Z,26.50
2023-04-16T01:09:46.551Z,24.50
2023-04-16T01:12:13.562Z,22.52
2023-04-16T01:14:40.105Z,21.85
2023-04-16T01:17:06.510Z,21.73
2023-04-16T01:19:36.202Z,22.42
2023-04-16T01:22:03.115Z,21.48
2023-04-16T01:24:29.632Z,23.75
2023-04-16T01:26:57.585Z,24.40
2023-04-16T01:29:24.097Z,23.38
2023-04-16T01:31:51.426Z,20.05
2023-04-16T01:34:31.463Z,20.42
2023-04-16T01:36:58.276Z,20.05
2023-04-16T01:39:24.680Z,20.42
2023-04-16T01:41:51.133Z,20.08
2023-04-16T01:44:17.566Z,19.80
2023-04-16T01:46:44.832Z,20.33
2023-04-16T01:49:11.371Z,21.80
2023-04-16T01:51:38.091Z,18.67
2023-04-16T01:54:04.559Z,19.95
2023-04-16T01:56:30.983Z,19.10
2023-04-16T01:58:57.473Z,19.02
2023-04-16T02:01:26.414Z,18.88
2023-04-16T02:03:53.516Z,18.95
2023-04-16T02:06:20.052Z,19.33
2023-04-16T02:08:46.613Z,19.98
2023-04-16T02:11:14.355Z,22.05
2023-04-16T02:13:41.117Z,21.50
2023-04-16T02:16:07.733Z,22.85
2023-04-16T02:18:43.486Z,25.70
2023-04-16T02:21:11.140Z,24.30
2023-04-16T02:23:41.047Z,30.85
2023-04-16T02:26:07.500Z,32.83
2023-04-16T02:28:33.986Z,32.17
2023-04-16T02:31:00.973Z,33.65
2023-04-16T02:33:32.090Z,34.35
2023-04-16T02:36:01.675Z,35.13
2023-04-16T02:38:28.279Z,35.85
2023-04-16T02:40:54.749Z,34.70
2023-04-16T02:43:21.190Z,35.55
2023-04-16T02:45:47.667Z,37.03
2023-04-16T02:48:14.205Z,41.55
2023-04-16T02:50:40.677Z,37.53
2023-04-16T02:53:07.834Z,41.35
2023-04-16T02:55:34.373Z,45.95
2023-04-16T02:58:00.907Z,43.42
2023-04-16T03:00:27.448Z,47.65
2023-04-16T03:02:54.143Z,46.65
2023-04-16T03:05:21.538Z,47.05
2023-04-16T03:07:48.099Z,46.03
2023-04-16T03:10:15.187Z,47.13
2023-04-16T03:12:41.648Z,48.28
2023-04-16T03:15:08.315Z,46.30
2023-04-16T03:17:34.794Z,45.53
2023-04-16T03:20:01.337Z,48.28
2023-04-16T03:22:27.785Z,48.72
2023-04-16T03:24:54.257Z,51.35
2023-04-16T03:27:20.809Z,52.45
2023-04-16T03:29:47.926Z,51.25
2023-04-16T03:32:14.418Z,52.55
2023-04-16T03:34:41.185Z,52.17
2023-04-16T03:37:08.967Z,53.53
2023-04-16T03:39:35.599Z,51.45
2023-04-16T03:42:03.383Z,53.33
2023-04-16T03:44:30.120Z,52.35
2023-04-16T03:46:56.937Z,53.00
2023-04-16T03:49:23.455Z,52.33
2023-04-16T03:51:51.189Z,55.20
2023-04-16T03:54:17.629Z,55.22
2023-04-16T03:56:50.088Z,55.05
2023-04-16T03:59:16.873Z,54.13
2023-04-16T04:01:44.035Z,53.20
2023-04-16T04:04:11.045Z,54.67
2023-04-16T04:06:37.624Z,54.78
2023-04-16T04:09:04.124Z,54.55
2023-04-16T04:11:30.663Z,54.58
2023-04-16T04:13:57.157Z,52.78
2023-04-16T04:16:23.638Z,53.67
2023-04-16T04:18:50.198Z,51.25
2023-04-16T04:21:16.705Z,50.55
2023-04-16T04:23:43.715Z,50.60
2023-04-16T04:26:10.993Z,51.67
2023-04-16T04:28:37.467Z,49.28
2023-04-16T04:31:04.437Z,47.10
2023-04-16T04:33:31.246Z,48.08
2023-04-16T04:35:57.976Z,49.28
2023-04-16T04:38:26.447Z,46.33
2023-04-16T04:40:53.400Z,46.95
2023-04-16T04:43:23.058Z,46.00
2023-04-16T04:45:50.369Z,46.05
2023-04-16T04:48:17.565Z,45.15
2023-04-16T04:50:45.312Z,44.75
2023-04-16T04:53:12.136Z,47.38
2023-04-16T04:55:39.396Z,47.97
2023-04-16T04:58:06.531Z,48.92
2023-04-16T05:00:33.757Z,53.13
2023-04-16T05:03:04.755Z,51.08
2023-04-16T05:05:31.436Z,50.58
2023-04-16T05:07:58.042Z,51.72
2023-04-16T05:10:24.595Z,54.75
2023-04-16T05:12:52.453Z,53.80
2023-04-16T05:15:19.056Z,53.67
2023-04-16T05:17:45.960Z,57.95
2023-04-16T05:20:12.508Z,57.00
2023-04-16T05:22:39.123Z,56.35
2023-04-16T05:25:06.322Z,57.60
2023-04-16T05:27:32.803Z,57.65
2023-04-16T05:29:59.486Z,57.45
2023-04-16T05:32:26.326Z,59.00
2023-04-16T05:34:52.776Z,56.30
2023-04-16T05:37:19.269Z,57.03
2023-04-16T05:39:45.760Z,58.22
2023-04-16T05:42:12.195Z,57.55
2023-04-16T05:44:38.617Z,62.47
2023-04-16T05:47:05.110Z,57.30
2023-04-16T05:49:31.603Z,59.38
2023-04-16T05:51:58.075Z,60.15
2023-04-16T05:54:24.522Z,61.08
2023-04-16T05:56:50.935Z,58.83
2023-04-16T05:59:17.439Z,58.97
2023-04-16T06:01:43.986Z,59.20
2023-04-16T06:04:10.650Z,57.22
2023-04-16T06:06:37.497Z,57.33
2023-04-16T06:09:04.197Z,58.47
2023-04-16T06:11:30.704Z,59.13
2023-04-16T06:13:57.198Z,57.90
2023-04-16T06:16:23.849Z,56.25
2023-04-16T06:18:53.370Z,60.50
2023-04-16T06:21:19.966Z,56.97
2023-04-16T06:23:46.494Z,60.22
2023-04-16T06:26:12.992Z,63.78
2023-04-16T06:28:39.431Z,61.05
2023-04-16T06:31:05.967Z,62.03
2023-04-16T06:33:32.399Z,62.92
2023-04-16T06:35:58.904Z,64.53
2023-04-16T06:38:25.357Z,62.45
2023-04-16T06:40:51.982Z,57.70
2023-04-16T06:43:18.633Z,63.05
2023-04-16T06:45:45.320Z,62.20
2023-04-16T06:48:11.769Z,62.50
2023-04-16T06:50:38.453Z,63.95
2023-04-16T06:53:04.956Z,61.10
2023-04-16T06:55:31.418Z,60.35
2023-04-16T06:57:57.872Z,54.63
2023-04-16T07:00:24.362Z,53.58
2023-04-16T07:02:50.942Z,53.00
2023-04-16T07:05:17.583Z,50.60
2023-04-16T07:07:44.253Z,45.47
2023-04-16T07:10:10.881Z,49.83
2023-04-16T07:12:37.500Z,44.80
2023-04-16T07:15:04.222Z,44.40
2023-04-16T07:17:30.702Z,43.88
2023-04-16T07:19:57.328Z,39.63
2023-04-16T07:22:23.952Z,42.10
2023-04-16T07:24:50.746Z,39.88
2023-04-16T07:27:17.525Z,37.22
2023-04-16T07:29:45.609Z,40.75
2023-04-16T07:32:14.072Z,36.03
2023-04-16T07:34:41.946Z,36.22
2023-04-16T07:37:08.819Z,35.75
2023-04-16T07:39:35.409Z,33.45
2023-04-16T07:42:02.191Z,31.58
2023-04-16T07:44:28.862Z,33.80
2023-04-16T07:46:55.629Z,33.65
2023-04-16T07:49:22.380Z,35.78
2023-04-16T07:51:48.962Z,33.63
2023-04-16T07:54:15.527Z,33.13
2023-04-16T07:56:42.091Z,32.35
2023-04-16T08:01:41.480Z,31.15
2023-04-16T08:04:08.209Z,31.95
2023-04-16T08:06:34.953Z,31.33
2023-04-16T08:09:01.529Z,31.27
2023-04-16T08:11:28.245Z,32.80
2023-04-16T08:13:54.835Z,34.97
2023-04-16T08:16:21.655Z,32.70
2023-04-16T08:18:48.386Z,31.38
2023-04-16T08:21:16.124Z,33.63
2023-04-16T08:23:43.172Z,35.15
2023-04-16T08:26:09.720Z,32.90
2023-04-16T08:28:36.225Z,30.75
2023-04-16T08:31:02.691Z,32.40
2023-04-16T08:33:29.224Z,31.88
2023-04-16T08:35:56.055Z,31.98
2023-04-16T08:38:22.565Z,30.27
2023-04-16T08:40:49.323Z,29.83
2023-04-16T08:43:16.184Z,30.38
2023-04-16T08:45:43.834Z,28.98
2023-04-16T08:48:11.802Z,27.08
2023-04-16T08:50:38.776Z,26.92
2023-04-16T08:53:08.782Z,27.67
2023-04-16T08:55:46.827Z,27.48
2023-04-16T08:58:20.609Z,27.27
2023-04-16T09:00:47.853Z,25.02
2023-04-16T09:03:14.662Z,24.40
2023-04-16T09:05:42.319Z,25.08
2023-04-16T09:08:11.433Z,25.42
2023-04-16T09:10:38.170Z,23.35
2023-04-16T09:13:04.697Z,24.42
2023-04-16T09:15:33.421Z,23.83
2023-04-16T09:18:01.572Z,21.95
2023-04-16T09:20:28.062Z,22.38
2023-04-16T09:22:57.126Z,21.23
2023-04-16T09:25:24.914Z,22.33
2023-04-16T09:27:51.495Z,20.77
2023-04-16T09:30:25.003Z,22.20
2023-04-16T09:32:52.903Z,22.83
2023-04-16T09:35:20.356Z,22.10
2023-04-16T09:37:57.144Z,22.70
2023-04-16T09:40:27.799Z,23.20
2023-04-16T09:42:57.010Z,23.83
2023-04-16T09:45:23.482Z,24.05
2023-04-16T09:47:50.061Z,23.73
2023-04-16T09:50:18.649Z,24.05
2023-04-16T09:52:47.756Z,24.05
2023-04-16T09:55:14.270Z,22.73
2023-04-16T09:57:40.743Z,22.25
2023-04-16T10:00:09.066Z,21.58
2023-04-16T10:02:38.935Z,21.23
2023-04-16T10:05:06.433Z,22.40
2023-04-16T10:07:36.718Z,21.70
2023-04-16T10:10:03.930Z,22.45
2023-04-16T10:12:32.664Z,23.08
2023-04-16T10:14:59.354Z,22.92
2023-04-16T10:17:30.390Z,22.05
2023-04-16T10:19:57.819Z,22.65
2023-04-16T10:22:24.326Z,23.40
2023-04-16T10:24:51.397Z,24.17
2023-04-16T10:27:21.245Z,22.48
2023-04-16T10:29:48.722Z,24.98
2023-04-16T10:32:16.027Z,24.70
2023-04-16T10:34:42.766Z,24.20
2023-04-16T10:37:09.200Z,23.83
2023-04-16T10:39:37.576Z,24.15
2023-04-16T10:42:10.464Z,23.38
2023-04-16T10:44:37.045Z,23.42
2023-04-16T10:47:09.583Z,22.25
2023-04-16T10:49:39.122Z,23.17
2023-04-16T10:52:16.971Z,21.85
2023-04-16T10:54:43.576Z,23.08
2023-04-16T10:57:12.767Z,21.02
2023-04-16T10:59:42.288Z,21.70
2023-04-16T11:02:12.943Z,22.52
2023-04-16T11:04:42.021Z,22.90
2023-04-16T11:07:08.557Z,22.67
2023-04-16T11:09:46.104Z,21.33
2023-04-16T11:12:13.639Z,20.45
2023-04-16T11:14:41.245Z,20.63
2023-04-16T11:17:08.008Z,20.20
2023-04-16T11:19:38.475Z,19.85
2023-04-16T11:22:05.555Z,18.00
2023-04-16T11:24:32.895Z,16.52
2023-04-16T11:26:59.498Z,17.75
2023-04-16T11:29:25.981Z,18.13
2023-04-16T11:31:53.647Z,17.10
2023-04-16T11:34:20.337Z,17.63
2023-04-16T11:36:51.323Z,17.65
2023-04-16T11:39:18.561Z,16.52
2023-04-16T11:41:48.815Z,16.15
2023-04-16T11:44:19.471Z,16.73
2023-04-16T11:46:45.940Z,15.32
2023-04-16T11:49:12.577Z,15.65
2023-04-16T11:51:42.478Z,16.17
2023-04-16T11:54:11.829Z,17.65
2023-04-16T11:56:38.731Z,15.90
2023-04-16T11:59:12.620Z,16.25
2023-04-16T12:01:40.762Z,16.30
2023-04-16T12:04:08.135Z,16.58
2023-04-16T12:06:34.833Z,17.30
2023-04-16T12:09:21.549Z,18.02
2023-04-16T12:11:47.984Z,19.13
2023-04-16T12:14:14.516Z,17.33
2023-04-16T12:16:41.197Z,16.35
2023-04-16T12:19:10.812Z,13.82
2023-04-16T12:21:41.413Z,13.85
2023-04-16T12:24:08.588Z,13.52
2023-04-16T12:26:45.265Z,12.05
2023-04-16T12:29:16.003Z,13.68
2023-04-16T12:31:42.742Z,13.68
2023-04-16T12:34:10.350Z,12.75
2023-04-16T12:36:37.118Z,13.15
2023-04-16T12:39:03.861Z,12.38
2023-04-16T12:41:30.539Z,12.20
2023-04-16T12:44:16.521Z,11.50
2023-04-16T12:46:43.610Z,12.18
2023-04-16T12:49:10.538Z,11.40
2023-04-16T12:51:37.845Z,11.35
2023-04-16T12:54:05.587Z,11.13
2023-04-16T12:56:32.061Z,11.30
2023-04-16T12:58:58.569Z,10.70
2023-04-16T13:01:25.185Z,11.00
2023-04-16T13:03:52.031Z,10.90
2023-04-16T13:06:18.632Z,11.02
2023-04-16T13:08:45.430Z,10.98
2023-04-16T13:11:12.441Z,10.50
2023-04-16T13:13:39.009Z,11.38
2023-04-16T13:16:06.769Z,11.15
2023-04-16T13:18:33.583Z,10.93
2023-04-16T13:21:00.108Z,11.25
2023-04-16T13:23:27.036Z,10.60
2023-04-16T13:25:53.576Z,10.48
2023-04-16T13:28:20.133Z,10.45
2023-04-16T13:30:49.603Z,11.93
2023-04-16T13:33:16.422Z,11.95
2023-04-16T13:35:42.988Z,11.25
2023-04-16T13:38:09.427Z,11.68
2023-04-16T13:40:35.913Z,11.45
2023-04-16T13:43:02.374Z,11.20
2023-04-16T13:45:28.946Z,11.20
2023-04-16T13:47:56.321Z,11.52
2023-04-16T13:50:23.018Z,12.32
2023-04-16T13:52:49.463Z,12.25
2023-04-16T13:55:19.141Z,12.57
2023-04-16T13:57:49.790Z,13.13
2023-04-16T14:00:16.773Z,12.65
2023-04-16T14:02:45.808Z,12.80
2023-04-16T14:05:12.536Z,12.45
2023-04-16T14:07:39.079Z,12.73
2023-04-16T14:10:05.825Z,12.18
2023-04-16T14:12:32.491Z,13.55
2023-04-16T14:15:01.932Z,13.10
2023-04-16T14:17:28.473Z,13.43
2023-04-16T14:19:55.009Z,13.27
2023-04-16T14:22:21.452Z,13.45
2023-04-16T14:24:48.073Z,12.23
2023-04-16T14:27:14.631Z,12.50
2023-04-16T14:29:41.511Z,14.35
2023-04-16T14:32:08.125Z,13.18
2023-04-16T14:34:34.826Z,12.00
2023-04-16T14:37:01.378Z,12.85
2023-04-16T14:39:27.956Z,13.43
2023-04-16T14:41:54.479Z,12.85
2023-04-16T14:44:21.597Z,13.25
2023-04-16T14:46:48.134Z,13.50
2023-04-16T14:49:14.880Z,12.50
2023-04-16T14:51:41.789Z,13.52
2023-04-16T14:54:08.253Z,12.57
2023-04-16T14:56:34.727Z,12.40
2023-04-16T14:59:01.270Z,12.25
2023-04-16T15:01:27.789Z,12.68
2023-04-16T15:03:58.303Z,11.77
2023-04-16T15:06:26.795Z,12.63
2023-04-16T15:08:53.293Z,12.90
2023-04-16T15:11:19.839Z,12.60
2023-04-16T15:13:46.283Z,12.45
2023-04-16T15:16:13.052Z,12.88
2023-04-16T15:18:39.631Z,13.25
2023-04-16T15:21:06.253Z,11.90
2023-04-16T15:23:32.741Z,11.73
2023-04-16T15:25:59.277Z,11.40
2023-04-16T15:28:25.819Z,11.63
2023-04-16T15:30:52.496Z,11.40
2023-04-16T15:33:20.992Z,11.15
2023-04-16T15:35:47.682Z,11.20
2023-04-16T15:38:14.108Z,11.75
2023-04-16T15:40:41.057Z,11.63
2023-04-16T15:43:07.589Z,11.43
2023-04-16T15:45:34.140Z,10.80
2023-04-16T15:48:00.605Z,10.10
2023-04-16T15:50:27.155Z,10.82
2023-04-16T15:52:53.670Z,9.90
2023-04-16T15:55:20.966Z,10.25
2023-04-16T15:57:47.584Z,9.43
2023-04-16T16:00:16.949Z,9.43
2023-04-16T16:02:44.268Z,10.50
2023-04-16T16:05:11.850Z,10.13
2023-04-16T16:07:38.471Z,9.90
2023-04-16T16:10:06.090Z,9.20
2023-04-16T16:12:32.993Z,10.68
2023-04-16T16:14:59.499Z,11.15
2023-04-16T16:17:26.101Z,9.95
2023-04-16T16:19:52.621Z,10.93
2023-04-16T16:22:23.542Z,11.18
2023-04-16T16:24:53.301Z,11.57
2023-04-16T16:27:22.602Z,11.40
2023-04-16T16:29:49.159Z,10.63
2023-04-16T16:32:16.569Z,11.70
2023-04-16T16:34:43.229Z,11.98
2023-04-16T16:37:09.712Z,12.95
2023-04-16T16:39:38.374Z,13.52
2023-04-16T16:42:05.240Z,13.00
2023-04-16T16:44:31.799Z,13.50
2023-04-16T16:46:58.332Z,12.95
2023-04-16T16:49:24.860Z,15.13
2023-04-16T16:51:51.319Z,17.55
2023-04-16T16:54:17.828Z,18.55
2023-04-16T16:56:44.295Z,18.45
2023-04-16T16:59:11.038Z,17.98
2023-04-16T17:01:37.814Z,18.13
2023-04-16T17:04:04.667Z,19.67
2023-04-16T17:06:31.931Z,18.17
2023-04-16T17:08:58.416Z,17.73
2023-04-16T17:11:27.123Z,18.20
2023-04-16T17:13:53.717Z,19.05
2023-04-16T17:16:20.410Z,17.90
2023-04-16T17:18:47.184Z,16.65
2023-04-16T17:21:16.559Z,16.70
2023-04-16T17:23:43.358Z,17.13
2023-04-16T17:26:09.749Z,17.75
2023-04-16T17:28:36.414Z,17.83
2023-04-16T17:31:03.665Z,18.45
2023-04-16T17:33:30.131Z,18.48
2023-04-16T17:35:56.636Z,18.80
2023-04-16T17:38:23.207Z,19.45
2023-04-16T17:40:49.697Z,18.92
2023-04-16T17:43:16.239Z,18.23
2023-04-16T17:45:42.756Z,19.92
2023-04-16T17:48:09.527Z,19.75
2023-04-16T17:50:38.179Z,20.55
2023-04-16T17:53:06.068Z,20.70
2023-04-16T17:55:32.546Z,21.60
2023-04-16T17:58:00.368Z,22.17
2023-04-16T18:00:26.865Z,22.83
2023-04-16T18:02:54.344Z,22.13
2023-04-16T18:05:21.235Z,22.85
2023-04-16T18:07:48.307Z,23.27
2023-04-16T18:10:14.859Z,23.00
2023-04-16T18:12:41.392Z,23.98
2023-04-16T18:15:08.215Z,25.90
2023-04-16T18:17:34.697Z,24.63
2023-04-16T18:20:01.292Z,24.08
2023-04-16T18:22:28.538Z,25.05
2023-04-16T18:24:55.290Z,24.33
2023-04-16T18:27:21.986Z,24.48
2023-04-16T18:29:49.417Z,25.85
2023-04-16T18:32:16.376Z,25.30
2023-04-16T18:34:43.132Z,25.25
2023-04-16T18:37:09.600Z,26.02
2023-04-16T18:39:36.921Z,26.98
2023-04-16T18:42:03.877Z,27.50
2023-04-16T18:44:30.538Z,27.10
2023-04-16T18:46:57.111Z,26.80
2023-04-16T18:49:23.766Z,27.02
2023-04-16T18:51:50.276Z,25.98
2023-04-16T18:54:16.760Z,26.30
2023-04-16T18:56:43.297Z,25.63
2023-04-16T18:59:10.081Z,26.08
2023-04-16T19:01:36.729Z,25.08
2023-04-16T19:04:03.473Z,25.75
2023-04-16T19:06:30.062Z,24.92
2023-04-16T19:08:56.590Z,25.77
2023-04-16T19:11:23.096Z,22.98
2023-04-16T19:13:49.555Z,25.52
2023-04-16T19:16:16.912Z,24.45
2023-04-16T19:18:43.473Z,23.48
2023-04-16T19:21:10.874Z,24.00
2023-04-16T19:23:37.585Z,24.20
2023-04-16T19:26:04.116Z,24.77
2023-04-16T19:28:30.766Z,24.42
2023-04-16T19:30:57.174Z,23.95
2023-04-16T19:33:23.615Z,24.75
2023-04-16T19:35:50.133Z,24.38
2023-04-16T19:38:16.615Z,24.52
2023-04-16T19:40:46.832Z,24.10
2023-04-16T19:43:13.467Z,24.30
2023-04-16T19:45:43.687Z,24.70
2023-04-16T19:48:10.376Z,24.33
2023-04-16T19:50:42.527Z,25.17
2023-04-16T19:53:09.399Z,25.23
2023-04-16T19:55:36.522Z,23.55
2023-04-16T19:58:06.410Z,23.98
2023-04-16T20:00:33.918Z,24.63
2023-04-16T20:03:00.562Z,23.65
2023-04-16T20:05:27.187Z,23.13
2023-04-16T20:07:54.047Z,23.10
2023-04-16T20:10:20.551Z,24.83
2023-04-16T20:12:47.380Z,24.52
2023-04-16T20:15:14.004Z,23.50
2023-04-16T20:17:40.764Z,24.90
2023-04-16T20:20:09.827Z,24.08
2023-04-16T20:22:39.908Z,24.23
2023-04-16T20:25:07.526Z,22.90
2023-04-16T20:27:34.096Z,23.40
2023-04-16T20:30:01.234Z,23.30
2023-04-16T20:32:28.025Z,23.88
2023-04-16T20:34:55.671Z,22.95
2023-04-16T20:37:22.419Z,23.42
2023-04-16T20:39:50.227Z,23.70
2023-04-16T20:42:16.795Z,24.60
2023-04-16T20:44:50.262Z,23.38
2023-04-16T20:47:19.901Z,24.13
2023-04-16T20:49:46.498Z,23.63
2023-04-16T20:52:13.273Z,24.33
2023-04-16T20:54:39.909Z,24.58
2023-04-16T20:57:06.456Z,25.17
2023-04-16T20:59:32.911Z,25.65
2023-04-16T21:01:59.509Z,26.88
2023-04-16T21:04:26.197Z,29.80
2023-04-16T21:06:55.628Z,30.20
2023-04-16T21:09:22.634Z,31.30
2023-04-16T21:11:49.121Z,34.15
2023-04-16T21:14:15.804Z,33.58
2023-04-16T21:16:42.301Z,35.40
2023-04-16T21:19:09.091Z,35.50
2023-04-16T21:21:36.779Z,33.50
2023-04-16T21:24:03.346Z,33.47
2023-04-16T21:26:29.838Z,34.53
2023-04-16T21:28:56.313Z,35.45
2023-04-16T21:31:22.848Z,36.00
2023-04-16T21:33:49.414Z,36.15
2023-04-16T21:36:15.861Z,36.10
2023-04-16T21:38:42.297Z,34.92
2023-04-16T21:41:08.761Z,35.67
2023-04-16T21:43:35.404Z,36.40
2023-04-16T21:46:01.903Z,36.78
2023-04-16T21:48:28.651Z,37.25
2023-04-16T21:50:59.716Z,40.13
2023-04-16T21:53:28.038Z,37.00
2023-04-16T21:55:54.513Z,40.47
2023-04-16T21:58:20.930Z,40.88
2023-04-16T22:00:47.551Z,42.90
2023-04-16T22:03:14.217Z,40.05
2023-04-16T22:05:41.054Z,39.25
2023-04-16T22:08:23.291Z,40.13
2023-04-16T22:10:51.226Z,39.95
2023-04-16T22:13:17.804Z,40.50
2023-04-16T22:15:44.346Z,42.00
2023-04-16T22:18:11.489Z,41.10
2023-04-16T22:20:39.123Z,41.40
2023-04-16T22:23:06.242Z,43.53
2023-04-16T22:25:32.845Z,43.63
2023-04-16T22:27:59.847Z,44.95
2023-04-16T22:30:26.314Z,45.33
2023-04-16T22:32:52.764Z,45.58
2023-04-16T22:35:19.315Z,47.05
2023-04-16T22:37:45.977Z,47.05
2023-04-16T22:40:12.494Z,47.30
2023-04-16T22:42:38.970Z,45.42
2023-04-16T22:45:05.988Z,47.58
2023-04-16T22:47:32.463Z,46.92
2023-04-16T22:50:00.333Z,49.78
2023-04-16T22:52:27.480Z,49.75
2023-04-16T22:54:53.978Z,48.88
2023-04-16T22:57:25.627Z,48.75
2023-04-16T22:59:52.945Z,50.33
2023-04-16T23:02:20.180Z,49.65
2023-04-16T23:04:47.705Z,49.85
2023-04-16T23:07:14.737Z,48.30
2023-04-16T23:09:41.250Z,49.15
2023-04-16T23:12:07.888Z,47.42
2023-04-16T23:14:34.973Z,49.13
2023-04-16T23:17:01.408Z,49.50
2023-04-16T23:19:27.873Z,48.63
2023-04-16T23:21:54.281Z,49.15
2023-04-16T23:24:20.769Z,51.25
2023-04-16T23:26:47.997Z,48.15
2023-04-16T23:29:14.422Z,48.10
2023-04-16T23:31:40.859Z,45.97
2023-04-16T23:34:07.578Z,49.67
2023-04-16T23:36:34.006Z,49.72
2023-04-16T23:39:00.718Z,50.58
2023-04-16T23:41:27.190Z,49.28
2023-04-16T23:43:53.774Z,49.95
2023-04-16T23:46:20.371Z,50.22
2023-04-16T23:48:46.830Z,51.80
2023-04-16T23:51:13.320Z,49.25
2023-04-16T23:53:40.779Z,49.85
2023-04-16T23:56:08.004Z,48.38
2023-04-16T23:58:34.479Z,50.33
